Ryoei Maru — JL6703 — position and weather

sailwx.info

Track history (hours):
 
Tides and Currents Weather Stations Pressure Air Temp Water Temp Dewpoint Dewpoint Depression Visibility Wind Speed Wind Dir Waves Ship Positions

Ryoei Maru

Last reported at 2018-Jan-09 16:35 UTC. Time now 2018-Jan-18 03:56 UTC.
Position N 35°03' E 140°22'.
Warning: this ship's position is 8 days out of date.

Length 95 m; draft 5 m.

Type: Cargo ship. MMSI: 431501749.

Date/timePositionNaut miles runAvg speedWind from/ knotsBaromVisibWave heightAir tempDewpointWater temp
2018-Jan-09 16:35N 35°03' E 140°22'714.7
2018-Jan-09 16:06N 34°59' E 140°15'114.2
2018-Jan-09 16:00N 34°59' E 140°13'814.2
2018-Jan-09 15:27N 34°55' E 140°05'1214.1
2018-Jan-09 14:36N 34°49' E 139°52'215.0
2018-Jan-09 14:26N 34°49' E 139°49'715.5
2018-Jan-09 13:59N 34°50' E 139°40'815.7
2018-Jan-09 13:30N 34°50' E 139°31'814.9
2018-Jan-09 13:00N 34°50' E 139°22'815.0
2018-Jan-09 12:28N 34°44' E 139°15'714.5
2018-Jan-09 12:00N 34°40' E 139°09'714.0
2018-Jan-09 11:30N 34°36' E 139°02'713.0
2018-Jan-09 11:00N 34°32' E 138°56'714.3
2018-Jan-09 10:29N 34°31' E 138°47'714.3
2018-Jan-09 09:59N 34°31' E 138°38'714.0
2018-Jan-09 09:29N 34°31' E 138°30'714.0
2018-Jan-09 08:59N 34°31' E 138°21'814.4
2018-Jan-09 08:28N 34°30' E 138°12'813.8
2018-Jan-09 07:55N 34°30' E 138°03'713.9
2018-Jan-09 07:27N 34°28' E 137°55'3013.4
2018-Jan-09 05:11N 34°20' E 137°20'11311.1
2018-Jan-08 19:02N 33°45' E 135°10'112.5
2018-Jan-08 18:55N 33°46' E 135°09'512.7
2018-Jan-08 18:30N 33°50' E 135°05'612.5
2018-Jan-08 18:00N 33°55' E 135°00'612.2
2018-Jan-08 17:30N 34°01' E 134°59'612.6
2018-Jan-08 17:01N 34°07' E 134°59'612.9
2018-Jan-08 16:30N 34°14' E 134°59'612.4
2018-Jan-08 16:00N 34°20' E 134°59'612.5
2018-Jan-08 15:30N 34°25' E 135°04'713.2
2018-Jan-08 15:00N 34°29' E 135°10'713.0
2018-Jan-08 14:30N 34°33' E 135°16'4 7.4
2018-Jan-08 14:00N 34°36' E 135°19'0 0.1
2018-Jan-08 13:30N 34°36' E 135°19'0 0.0
2018-Jan-08 13:00N 34°36' E 135°19'0 0.0
2018-Jan-08 12:30N 34°36' E 135°19'0 0.0
2018-Jan-08 12:00N 34°36' E 135°19'0 0.0
2018-Jan-08 11:30N 34°36' E 135°19'0 0.1
2018-Jan-08 11:00N 34°36' E 135°19'0 0.0
2018-Jan-08 10:30N 34°36' E 135°19'0 0.0
2018-Jan-08 10:00N 34°36' E 135°19'3 5.2
2018-Jan-08 09:30N 34°37' E 135°22'3 6.7
2018-Jan-08 09:00N 34°37' E 135°26'0 0.0
2018-Jan-08 08:25N 34°37' E 135°26'0 0.0
2018-Jan-08 07:55N 34°37' E 135°26'0 0.0
2018-Jan-08 07:25N 34°37' E 135°26'0 0.0
2018-Jan-08 06:58N 34°37' E 135°26'0 0.0
2018-Jan-08 06:25N 34°37' E 135°26'0 0.0
2018-Jan-08 05:58N 34°37' E 135°26'0 0.0
2018-Jan-08 05:28N 34°37' E 135°26'0 0.0
2018-Jan-08 04:58N 34°37' E 135°26'0 0.0
2018-Jan-08 04:28N 34°37' E 135°26'0 0.0
2018-Jan-08 03:58N 34°37' E 135°26'0 0.0
2018-Jan-08 03:28N 34°37' E 135°26'0 0.0
2018-Jan-08 02:58N 34°37' E 135°26'0 0.0
2018-Jan-08 02:25N 34°37' E 135°26'0 0.0
2018-Jan-08 01:55N 34°37' E 135°26'0 0.0
2018-Jan-08 01:28N 34°37' E 135°26'0 0.0
2018-Jan-08 00:55N 34°37' E 135°26'0 0.0
2018-Jan-08 00:25N 34°37' E 135°26'0 0.0
2018-Jan-07 23:58N 34°37' E 135°26'0 0.0
2018-Jan-07 23:25N 34°37' E 135°26'0 0.0
2018-Jan-07 22:55N 34°37' E 135°26'0 0.0
2018-Jan-07 22:29N 34°37' E 135°26'2 3.6
2018-Jan-07 22:00N 34°38' E 135°24'510.8
2018-Jan-07 21:31N 34°35' E 135°18'1 1.0
2018-Jan-07 20:59N 34°34' E 135°18'0 0.0
2018-Jan-07 20:29N 34°34' E 135°18'0 0.0
2018-Jan-07 19:59N 34°34' E 135°18'0 0.0
2018-Jan-07 19:29N 34°34' E 135°18'0 0.0
2018-Jan-07 18:59N 34°34' E 135°18'0 0.0
2018-Jan-07 18:29N 34°34' E 135°18'0 0.0
2018-Jan-07 17:59N 34°34' E 135°18'0 0.0
2018-Jan-07 17:29N 34°34' E 135°18'0 0.0
2018-Jan-07 16:59N 34°34' E 135°18'0 0.0
2018-Jan-07 16:29N 34°34' E 135°18'0 0.0
2018-Jan-07 15:59N 34°34' E 135°18'0 0.0
2018-Jan-07 15:29N 34°34' E 135°18'0 0.0
2018-Jan-07 14:59N 34°34' E 135°18'0 0.0
2018-Jan-07 14:29N 34°34' E 135°18'0 0.0
2018-Jan-07 13:59N 34°34' E 135°18'0 0.0
2018-Jan-07 13:29N 34°34' E 135°18'0 0.4
2018-Jan-07 13:00N 34°34' E 135°18'612.5
2018-Jan-07 12:30N 34°30' E 135°12'612.3
2018-Jan-07 12:00N 34°25' E 135°08'612.4
2018-Jan-07 11:31N 34°20' E 135°03'510.9
2018-Jan-07 11:00N 34°16' E 134°59'612.0
2018-Jan-07 10:30N 34°10' E 134°60'612.3
2018-Jan-07 10:00N 34°03' E 135°00'612.3
2018-Jan-07 09:30N 33°57' E 135°01'611.9
2018-Jan-07 09:01N 33°52' E 135°02'612.2
2018-Jan-07 08:29N 33°47' E 135°07'13811.1
2018-Jan-06 20:03N 34°28' E 137°46'111.9
2018-Jan-06 19:56N 34°28' E 137°47'511.4
2018-Jan-06 19:30N 34°29' E 137°53'511.0
2018-Jan-06 19:00N 34°30' E 137°60'610.8
2018-Jan-06 18:25N 34°30' E 138°07'710.3
2018-Jan-06 17:47N 34°32' E 138°15'410.4
2018-Jan-06 17:26N 34°32' E 138°19'510.4
2018-Jan-06 17:00N 34°32' E 138°25'711.0
2018-Jan-06 16:24N 34°32' E 138°33'410.6
2018-Jan-06 16:00N 34°32' E 138°38'711.5
2018-Jan-06 15:26N 34°32' E 138°46'511.2
2018-Jan-06 14:59N 34°32' E 138°52'5 9.8
2018-Jan-06 14:31N 34°33' E 138°58'711.6
2018-Jan-06 13:56N 34°37' E 139°03'511.7
2018-Jan-06 13:31N 34°41' E 139°08'2312.2
2018-Jan-06 11:36N 34°57' E 139°29'112.2
2018-Jan-06 11:29N 34°57' E 139°30'612.7
2018-Jan-06 11:00N 35°02' E 139°36'713.1
2018-Jan-06 10:30N 35°06' E 139°41'713.1
2018-Jan-06 10:00N 35°12' E 139°46'611.8
2018-Jan-06 09:30N 35°17' E 139°44'612.2
2018-Jan-06 09:00N 35°23' E 139°42'612.0
2018-Jan-06 08:30N 35°27' E 139°47'611.8
2018-Jan-06 08:01N 35°32' E 139°52'610.8
2018-Jan-06 07:29N 35°37' E 139°49'2 0.2
2018-Jan-05 23:17N 35°37' E 139°47'0 0.0
2018-Jan-05 22:53N 35°37' E 139°47'0 0.0
2018-Jan-05 22:23N 35°37' E 139°47'1 1.3
2018-Jan-05 21:56N 35°37' E 139°48'3 7.3
2018-Jan-05 21:30N 35°35' E 139°51'3 5.2
2018-Jan-05 21:01N 35°33' E 139°52'3 6.4
2018-Jan-05 20:30N 35°30' E 139°52'510.0
2018-Jan-05 20:00N 35°26' E 139°49'611.5
2018-Jan-05 19:30N 35°21' E 139°45'611.2
2018-Jan-05 19:00N 35°16' E 139°47'612.4
2018-Jan-05 18:30N 35°10' E 139°47'612.3
2018-Jan-05 18:00N 35°04' E 139°44'612.1
2018-Jan-05 17:30N 34°58' E 139°41'713.3
2018-Jan-05 17:00N 34°53' E 139°46'1112.4
2018-Jan-05 16:05N 34°52' E 140°00'  
Track history (hours):
 
Tides and Currents Weather Stations Pressure Air Temp Water Temp Dewpoint Dewpoint Depression Visibility Wind Speed Wind Dir Waves Ship Positions

Ryoei Maru

Last reported at 2018-Jan-09 16:35 UTC. Time now 2018-Jan-18 03:56 UTC.
Position N 35°03' E 140°22'.
Warning: this ship's position is 8 days out of date.

Length 95 m; draft 5 m.

Type: Cargo ship. MMSI: 431501749.

Date/timePositionNaut miles runAvg speedWind from/ knotsBaromVisibWave heightAir tempDewpointWater temp
2018-Jan-09 16:35N 35°03' E 140°22'714.7
2018-Jan-09 16:06N 34°59' E 140°15'114.2
2018-Jan-09 16:00N 34°59' E 140°13'814.2
2018-Jan-09 15:27N 34°55' E 140°05'1214.1
2018-Jan-09 14:36N 34°49' E 139°52'215.0
2018-Jan-09 14:26N 34°49' E 139°49'715.5
2018-Jan-09 13:59N 34°50' E 139°40'815.7
2018-Jan-09 13:30N 34°50' E 139°31'814.9
2018-Jan-09 13:00N 34°50' E 139°22'815.0
2018-Jan-09 12:28N 34°44' E 139°15'714.5
2018-Jan-09 12:00N 34°40' E 139°09'714.0
2018-Jan-09 11:30N 34°36' E 139°02'713.0
2018-Jan-09 11:00N 34°32' E 138°56'714.3
2018-Jan-09 10:29N 34°31' E 138°47'714.3
2018-Jan-09 09:59N 34°31' E 138°38'714.0
2018-Jan-09 09:29N 34°31' E 138°30'714.0
2018-Jan-09 08:59N 34°31' E 138°21'814.4
2018-Jan-09 08:28N 34°30' E 138°12'813.8
2018-Jan-09 07:55N 34°30' E 138°03'713.9
2018-Jan-09 07:27N 34°28' E 137°55'3013.4
2018-Jan-09 05:11N 34°20' E 137°20'11311.1
2018-Jan-08 19:02N 33°45' E 135°10'112.5
2018-Jan-08 18:55N 33°46' E 135°09'512.7
2018-Jan-08 18:30N 33°50' E 135°05'612.5
2018-Jan-08 18:00N 33°55' E 135°00'612.2
2018-Jan-08 17:30N 34°01' E 134°59'612.6
2018-Jan-08 17:01N 34°07' E 134°59'612.9
2018-Jan-08 16:30N 34°14' E 134°59'612.4
2018-Jan-08 16:00N 34°20' E 134°59'612.5
2018-Jan-08 15:30N 34°25' E 135°04'713.2
2018-Jan-08 15:00N 34°29' E 135°10'713.0
2018-Jan-08 14:30N 34°33' E 135°16'4 7.4
2018-Jan-08 14:00N 34°36' E 135°19'0 0.1
2018-Jan-08 13:30N 34°36' E 135°19'0 0.0
2018-Jan-08 13:00N 34°36' E 135°19'0 0.0
2018-Jan-08 12:30N 34°36' E 135°19'0 0.0
2018-Jan-08 12:00N 34°36' E 135°19'0 0.0
2018-Jan-08 11:30N 34°36' E 135°19'0 0.1
2018-Jan-08 11:00N 34°36' E 135°19'0 0.0
2018-Jan-08 10:30N 34°36' E 135°19'0 0.0
2018-Jan-08 10:00N 34°36' E 135°19'3 5.2
2018-Jan-08 09:30N 34°37' E 135°22'3 6.7
2018-Jan-08 09:00N 34°37' E 135°26'0 0.0
2018-Jan-08 08:25N 34°37' E 135°26'0 0.0
2018-Jan-08 07:55N 34°37' E 135°26'0 0.0
2018-Jan-08 07:25N 34°37' E 135°26'0 0.0
2018-Jan-08 06:58N 34°37' E 135°26'0 0.0
2018-Jan-08 06:25N 34°37' E 135°26'0 0.0
2018-Jan-08 05:58N 34°37' E 135°26'0 0.0
2018-Jan-08 05:28N 34°37' E 135°26'0 0.0
2018-Jan-08 04:58N 34°37' E 135°26'0 0.0
2018-Jan-08 04:28N 34°37' E 135°26'0 0.0
2018-Jan-08 03:58N 34°37' E 135°26'0 0.0
2018-Jan-08 03:28N 34°37' E 135°26'0 0.0
2018-Jan-08 02:58N 34°37' E 135°26'0 0.0
2018-Jan-08 02:25N 34°37' E 135°26'0 0.0
2018-Jan-08 01:55N 34°37' E 135°26'0 0.0
2018-Jan-08 01:28N 34°37' E 135°26'0 0.0
2018-Jan-08 00:55N 34°37' E 135°26'0 0.0
2018-Jan-08 00:25N 34°37' E 135°26'0 0.0
2018-Jan-07 23:58N 34°37' E 135°26'0 0.0
2018-Jan-07 23:25N 34°37' E 135°26'0 0.0
2018-Jan-07 22:55N 34°37' E 135°26'0 0.0
2018-Jan-07 22:29N 34°37' E 135°26'2 3.6
2018-Jan-07 22:00N 34°38' E 135°24'510.8
2018-Jan-07 21:31N 34°35' E 135°18'1 1.0
2018-Jan-07 20:59N 34°34' E 135°18'0 0.0
2018-Jan-07 20:29N 34°34' E 135°18'0 0.0
2018-Jan-07 19:59N 34°34' E 135°18'0 0.0
2018-Jan-07 19:29N 34°34' E 135°18'0 0.0
2018-Jan-07 18:59N 34°34' E 135°18'0 0.0
2018-Jan-07 18:29N 34°34' E 135°18'0 0.0
2018-Jan-07 17:59N 34°34' E 135°18'0 0.0
2018-Jan-07 17:29N 34°34' E 135°18'0 0.0
2018-Jan-07 16:59N 34°34' E 135°18'0 0.0
2018-Jan-07 16:29N 34°34' E 135°18'0 0.0
2018-Jan-07 15:59N 34°34' E 135°18'0 0.0
2018-Jan-07 15:29N 34°34' E 135°18'0 0.0
2018-Jan-07 14:59N 34°34' E 135°18'0 0.0
2018-Jan-07 14:29N 34°34' E 135°18'0 0.0
2018-Jan-07 13:59N 34°34' E 135°18'0 0.0
2018-Jan-07 13:29N 34°34' E 135°18'0 0.4
2018-Jan-07 13:00N 34°34' E 135°18'612.5
2018-Jan-07 12:30N 34°30' E 135°12'612.3
2018-Jan-07 12:00N 34°25' E 135°08'612.4
2018-Jan-07 11:31N 34°20' E 135°03'510.9
2018-Jan-07 11:00N 34°16' E 134°59'612.0
2018-Jan-07 10:30N 34°10' E 134°60'612.3
2018-Jan-07 10:00N 34°03' E 135°00'612.3
2018-Jan-07 09:30N 33°57' E 135°01'611.9
2018-Jan-07 09:01N 33°52' E 135°02'612.2
2018-Jan-07 08:29N 33°47' E 135°07'13811.1
2018-Jan-06 20:03N 34°28' E 137°46'111.9
2018-Jan-06 19:56N 34°28' E 137°47'511.4
2018-Jan-06 19:30N 34°29' E 137°53'511.0
2018-Jan-06 19:00N 34°30' E 137°60'610.8
2018-Jan-06 18:25N 34°30' E 138°07'710.3
2018-Jan-06 17:47N 34°32' E 138°15'410.4
2018-Jan-06 17:26N 34°32' E 138°19'510.4
2018-Jan-06 17:00N 34°32' E 138°25'711.0
2018-Jan-06 16:24N 34°32' E 138°33'410.6
2018-Jan-06 16:00N 34°32' E 138°38'711.5
2018-Jan-06 15:26N 34°32' E 138°46'511.2
2018-Jan-06 14:59N 34°32' E 138°52'5 9.8
2018-Jan-06 14:31N 34°33' E 138°58'711.6
2018-Jan-06 13:56N 34°37' E 139°03'511.7
2018-Jan-06 13:31N 34°41' E 139°08'2312.2
2018-Jan-06 11:36N 34°57' E 139°29'112.2
2018-Jan-06 11:29N 34°57' E 139°30'612.7
2018-Jan-06 11:00N 35°02' E 139°36'713.1
2018-Jan-06 10:30N 35°06' E 139°41'713.1
2018-Jan-06 10:00N 35°12' E 139°46'611.8
2018-Jan-06 09:30N 35°17' E 139°44'612.2
2018-Jan-06 09:00N 35°23' E 139°42'612.0
2018-Jan-06 08:30N 35°27' E 139°47'611.8
2018-Jan-06 08:01N 35°32' E 139°52'610.8
2018-Jan-06 07:29N 35°37' E 139°49'2 0.2
2018-Jan-05 23:17N 35°37' E 139°47'0 0.0
2018-Jan-05 22:53N 35°37' E 139°47'0 0.0
2018-Jan-05 22:23N 35°37' E 139°47'1 1.3
2018-Jan-05 21:56N 35°37' E 139°48'3 7.3
2018-Jan-05 21:30N 35°35' E 139°51'3 5.2
2018-Jan-05 21:01N 35°33' E 139°52'3 6.4
2018-Jan-05 20:30N 35°30' E 139°52'510.0
2018-Jan-05 20:00N 35°26' E 139°49'611.5
2018-Jan-05 19:30N 35°21' E 139°45'611.2
2018-Jan-05 19:00N 35°16' E 139°47'612.4
2018-Jan-05 18:30N 35°10' E 139°47'612.3
2018-Jan-05 18:00N 35°04' E 139°44'612.1
2018-Jan-05 17:30N 34°58' E 139°41'713.3
2018-Jan-05 17:00N 34°53' E 139°46'1112.4
2018-Jan-05 16:05N 34°52' E 140°00'  

Dump ship's entire track history